createdAt,value
2023-04-19T00:00:47.344Z,10.91
2023-04-19T00:03:14.900Z,10.85
2023-04-19T00:05:42.607Z,10.64
2023-04-19T00:08:09.516Z,10.58
2023-04-19T00:10:36.665Z,10.60
2023-04-19T00:13:03.618Z,10.69
2023-04-19T00:15:44.951Z,10.82
2023-04-19T00:18:24.971Z,10.76
2023-04-19T00:21:11.923Z,10.71
2023-04-19T00:23:52.013Z,10.67
2023-04-19T00:26:38.951Z,10.42
2023-04-19T00:29:25.881Z,10.37
2023-04-19T00:32:06.392Z,10.53
2023-04-19T00:34:52.867Z,10.59
2023-04-19T00:37:39.874Z,10.50
2023-04-19T00:40:27.925Z,10.38
2023-04-19T00:43:18.076Z,10.28
2023-04-19T00:46:04.856Z,10.19
2023-04-19T00:48:45.400Z,10.16
2023-04-19T00:51:31.808Z,10.14
2023-04-19T00:54:19.928Z,10.07
2023-04-19T00:57:06.861Z,10.11
2023-04-19T00:59:47.795Z,10.21
2023-04-19T01:02:34.988Z,10.24
2023-04-19T01:05:15.408Z,10.23
2023-04-19T01:08:01.941Z,10.21
2023-04-19T01:10:48.868Z,10.17
2023-04-19T01:13:35.832Z,10.17
2023-04-19T01:16:22.989Z,9.88
2023-04-19T01:19:02.920Z,9.95
2023-04-19T01:21:50.871Z,10.10
2023-04-19T01:24:31.993Z,10.14
2023-04-19T01:27:20.826Z,9.95
2023-04-19T01:30:01.104Z,10.00
2023-04-19T01:32:47.828Z,9.95
2023-04-19T01:35:34.794Z,10.13
2023-04-19T01:38:22.799Z,10.10
2023-04-19T01:41:02.959Z,10.33
2023-04-19T01:43:49.793Z,10.24
2023-04-19T01:46:36.824Z,10.16
2023-04-19T01:49:25.009Z,10.17
2023-04-19T01:52:04.812Z,10.27
2023-04-19T01:54:54.653Z,10.29
2023-04-19T01:57:36.877Z,10.22
2023-04-19T02:00:24.762Z,10.33
2023-04-19T02:03:11.994Z,10.24
2023-04-19T02:06:00.693Z,10.08
2023-04-19T02:08:41.970Z,10.10
2023-04-19T02:11:28.729Z,10.07
2023-04-19T02:14:11.670Z,10.14
2023-04-19T02:16:58.873Z,10.15
2023-04-19T02:19:45.705Z,10.32
2023-04-19T02:22:26.072Z,10.48
2023-04-19T02:25:12.746Z,10.71
2023-04-19T02:27:53.855Z,10.76
2023-04-19T02:30:40.680Z,10.60
2023-04-19T02:33:33.687Z,10.37
2023-04-19T02:36:13.822Z,10.23
2023-04-19T02:39:02.662Z,10.16
2023-04-19T02:41:58.721Z,10.15
2023-04-19T02:44:45.910Z,10.15
2023-04-19T02:47:32.787Z,10.24
2023-04-19T02:50:14.084Z,10.33
2023-04-19T02:53:03.685Z,10.30
2023-04-19T02:55:44.017Z,10.25
2023-04-19T02:58:32.762Z,10.25
2023-04-19T03:01:13.306Z,10.30
2023-04-19T03:03:59.812Z,10.25
2023-04-19T03:06:46.781Z,10.26
2023-04-19T03:09:28.816Z,10.48
2023-04-19T03:12:16.591Z,10.65
2023-04-19T03:15:03.648Z,10.72
2023-04-19T03:17:44.106Z,10.69
2023-04-19T03:20:32.653Z,10.77
2023-04-19T03:23:12.986Z,10.69
2023-04-19T03:26:00.651Z,10.18
2023-04-19T03:28:48.595Z,10.33
2023-04-19T03:31:39.788Z,10.33
2023-04-19T03:34:20.087Z,10.52
2023-04-19T03:37:08.572Z,10.47
2023-04-19T03:39:51.111Z,10.52
2023-04-19T03:42:47.675Z,10.39
2023-04-19T03:45:44.705Z,10.29
2023-04-19T03:48:24.690Z,10.35
2023-04-19T03:51:11.597Z,10.50
2023-04-19T03:53:51.706Z,10.51
2023-04-19T03:56:38.593Z,10.76
2023-04-19T03:59:19.737Z,10.80
2023-04-19T04:02:13.675Z,10.64
2023-04-19T04:04:55.228Z,10.29
2023-04-19T04:07:42.621Z,10.47
2023-04-19T04:10:22.974Z,10.52
2023-04-19T04:13:09.533Z,10.67
2023-04-19T04:15:55.911Z,10.82
2023-04-19T04:18:42.603Z,10.81
2023-04-19T04:21:24.359Z,10.73
2023-04-19T04:24:14.740Z,10.62
2023-04-19T04:27:12.271Z,10.87
2023-04-19T04:29:59.660Z,10.90
2023-04-19T04:32:41.181Z,10.91
2023-04-19T04:35:28.531Z,10.92
2023-04-19T04:38:24.130Z,10.79
2023-04-19T04:41:12.545Z,10.52
2023-04-19T04:44:12.103Z,10.63
2023-04-19T04:46:53.588Z,10.74
2023-04-19T04:49:42.553Z,10.78
2023-04-19T04:52:31.572Z,10.86
2023-04-19T04:55:24.524Z,10.89
2023-04-19T04:58:05.914Z,10.45
2023-04-19T05:01:12.519Z,10.70
2023-04-19T05:03:53.712Z,10.68
2023-04-19T05:06:40.548Z,10.73
2023-04-19T05:09:27.609Z,10.68
2023-04-19T05:12:14.577Z,10.67
2023-04-19T05:15:01.534Z,10.43
2023-04-19T05:17:43.916Z,10.46
2023-04-19T05:20:31.485Z,10.54
2023-04-19T05:23:18.950Z,10.40
2023-04-19T05:26:06.524Z,10.26
2023-04-19T05:28:47.926Z,10.37
2023-04-19T05:31:48.547Z,10.58
2023-04-19T05:34:39.497Z,10.42
2023-04-19T05:37:28.512Z,10.56
2023-04-19T05:40:22.445Z,10.63
2023-04-19T05:43:02.978Z,10.53
2023-04-19T05:45:50.480Z,10.50
2023-04-19T05:48:30.863Z,10.12
2023-04-19T05:51:40.413Z,10.18
2023-04-19T05:54:40.821Z,10.47
2023-04-19T05:57:27.493Z,10.29
2023-04-19T06:00:09.818Z,10.53
2023-04-19T06:03:04.526Z,10.76
2023-04-19T06:05:44.982Z,10.87
2023-04-19T06:08:31.415Z,10.95
2023-04-19T06:11:26.527Z,11.18
2023-04-19T06:14:19.729Z,11.20
2023-04-19T06:17:06.644Z,10.87
2023-04-19T06:19:46.401Z,10.45
2023-04-19T06:22:33.475Z,10.67
2023-04-19T06:25:13.415Z,10.84
2023-04-19T06:27:53.782Z,10.86
2023-04-19T06:30:40.428Z,10.61
2023-04-19T06:33:20.967Z,10.16
2023-04-19T06:36:07.433Z,10.45
2023-04-19T06:38:47.839Z,10.58
2023-04-19T06:41:34.384Z,10.69
2023-04-19T06:44:21.402Z,10.32
2023-04-19T06:47:08.378Z,10.36
2023-04-19T06:49:48.841Z,10.62
2023-04-19T06:52:35.355Z,10.72
2023-04-19T06:55:15.875Z,10.42
2023-04-19T06:58:02.342Z,10.48
2023-04-19T07:00:49.319Z,10.64
2023-04-19T07:03:29.898Z,10.71
2023-04-19T07:06:16.377Z,10.53
2023-04-19T07:08:56.677Z,10.52
2023-04-19T07:11:43.367Z,10.76
2023-04-19T07:14:23.859Z,10.70
2023-04-19T07:17:12.365Z,10.68
2023-04-19T07:19:54.408Z,11.06
2023-04-19T07:22:41.487Z,11.16
2023-04-19T07:25:28.355Z,11.06
2023-04-19T07:40:29.037Z,10.84
2023-04-19T07:43:09.362Z,10.75
2023-04-19T07:45:56.062Z,10.94
2023-04-19T07:48:36.858Z,11.20
2023-04-19T07:51:30.982Z,10.92
2023-04-19T07:54:11.535Z,11.03
2023-04-19T07:56:57.954Z,11.04
2023-04-19T07:59:44.923Z,10.93
2023-04-19T08:02:32.195Z,11.11
2023-04-19T08:05:13.606Z,10.96
2023-04-19T08:08:00.936Z,11.14
2023-04-19T08:10:41.357Z,11.14
2023-04-19T08:13:27.916Z,10.80
2023-04-19T08:16:51.732Z,10.92
2023-04-19T08:19:15.152Z,10.73
2023-04-19T08:22:01.911Z,10.73
2023-04-19T08:24:42.016Z,10.86
2023-04-19T08:27:28.942Z,10.74
2023-04-19T08:30:09.345Z,10.75
2023-04-19T08:32:57.129Z,10.42
2023-04-19T08:35:37.133Z,10.45
2023-04-19T08:38:23.900Z,10.58
2023-04-19T08:41:10.963Z,10.87
2023-04-19T08:43:52.539Z,10.88
2023-04-19T08:46:38.924Z,11.01
2023-04-19T08:49:21.154Z,11.23
2023-04-19T08:52:10.993Z,11.11
2023-04-19T08:54:52.261Z,11.27
2023-04-19T08:57:38.929Z,11.05
2023-04-19T09:00:19.825Z,11.10
2023-04-19T09:03:07.202Z,11.26
2023-04-19T09:05:47.625Z,11.31
2023-04-19T09:08:44.894Z,11.47
2023-04-19T09:11:40.484Z,11.45
2023-04-19T09:14:30.051Z,11.49
2023-04-19T09:17:20.906Z,11.72
2023-04-19T09:20:07.969Z,11.75
2023-04-19T09:23:05.031Z,11.88
2023-04-19T09:29:05.809Z,12.37
2023-04-19T09:31:53.080Z,12.01
2023-04-19T09:34:33.332Z,12.35
2023-04-19T09:40:37.885Z,12.23
2023-04-19T09:43:57.499Z,12.11
2023-04-19T09:46:53.901Z,11.10
2023-04-19T09:49:46.077Z,11.28
2023-04-19T09:52:38.991Z,11.47
2023-04-19T09:58:10.823Z,11.32
2023-04-19T10:01:10.498Z,11.22
2023-04-19T10:04:19.971Z,11.18
2023-04-19T10:07:29.513Z,10.96
2023-04-19T10:10:19.543Z,11.45
2023-04-19T10:13:18.841Z,11.58
2023-04-19T10:16:11.512Z,11.56
2023-04-19T10:18:59.865Z,11.71
2023-04-19T10:21:48.794Z,11.80
2023-04-19T10:24:28.969Z,11.96
2023-04-19T10:27:19.780Z,12.36
2023-04-19T10:30:12.798Z,12.65
2023-04-19T10:33:04.897Z,12.64
2023-04-19T10:35:44.934Z,12.62
2023-04-19T10:38:52.871Z,12.36
2023-04-19T10:42:04.912Z,12.20
2023-04-19T10:45:30.916Z,12.13
2023-04-19T10:48:17.760Z,11.91
2023-04-19T10:50:58.858Z,12.13
2023-04-19T10:54:04.745Z,12.17
2023-04-19T10:57:11.987Z,12.01
2023-04-19T10:59:51.904Z,12.02
2023-04-19T11:02:39.807Z,12.12
2023-04-19T11:05:20.431Z,12.20
2023-04-19T11:08:06.737Z,12.10
2023-04-19T11:10:48.940Z,11.96
2023-04-19T11:13:35.772Z,12.28
2023-04-19T11:16:19.290Z,12.14
2023-04-19T11:19:06.801Z,12.04
2023-04-19T11:21:46.903Z,11.84
2023-04-19T11:24:33.734Z,11.61
2023-04-19T11:27:21.672Z,11.58
2023-04-19T11:30:13.694Z,11.59
2023-04-19T11:32:58.897Z,11.53
2023-04-19T11:35:46.677Z,11.75
2023-04-19T11:38:33.682Z,11.65
2023-04-19T11:41:20.694Z,11.68
2023-04-19T11:44:07.688Z,11.51
2023-04-19T11:47:10.686Z,11.44
2023-04-19T11:49:57.752Z,11.28
2023-04-19T11:52:38.092Z,11.38
2023-04-19T11:55:34.673Z,11.24
2023-04-19T11:58:29.525Z,11.27
2023-04-19T12:01:23.702Z,11.17
2023-04-19T12:04:05.165Z,11.05
2023-04-19T12:06:51.624Z,11.15
2023-04-19T12:09:37.108Z,11.39
2023-04-19T12:12:24.616Z,11.52
2023-04-19T12:15:06.589Z,11.67
2023-04-19T12:18:13.736Z,11.96
2023-04-19T12:20:55.040Z,12.40
2023-04-19T12:23:41.661Z,12.64
2023-04-19T12:26:22.052Z,13.30
2023-04-19T12:29:09.647Z,13.60
2023-04-19T12:31:56.843Z,14.13
2023-04-19T12:34:37.635Z,13.95
2023-04-19T12:37:18.118Z,14.09
2023-04-19T12:40:04.609Z,14.48
2023-04-19T12:42:51.618Z,14.21
2023-04-19T12:45:32.925Z,14.10
2023-04-19T12:48:21.620Z,13.91
2023-04-19T12:51:01.872Z,13.75
2023-04-19T12:53:48.640Z,14.06
2023-04-19T12:56:28.665Z,14.12
2023-04-19T12:59:15.916Z,14.82
2023-04-19T13:01:55.775Z,15.21
2023-04-19T13:04:43.753Z,14.94
2023-04-19T13:07:23.769Z,15.05
2023-04-19T13:10:10.613Z,14.93
2023-04-19T13:12:50.754Z,15.00
2023-04-19T13:15:37.594Z,14.73
2023-04-19T13:18:24.582Z,14.20
2023-04-19T13:21:11.900Z,14.52
2023-04-19T13:23:51.606Z,14.38
2023-04-19T13:26:33.967Z,14.41
2023-04-19T13:29:20.573Z,14.33
2023-04-19T13:32:01.235Z,13.96
2023-04-19T13:34:47.593Z,13.89
2023-04-19T13:37:28.012Z,13.93
2023-04-19T13:40:19.248Z,14.04
2023-04-19T13:43:06.595Z,13.88
2023-04-19T13:45:46.710Z,13.98
2023-04-19T13:48:35.563Z,14.18
2023-04-19T13:51:18.419Z,14.41
2023-04-19T13:54:05.566Z,14.79
2023-04-19T13:56:52.642Z,14.58
2023-04-19T13:59:32.882Z,14.83
2023-04-19T14:02:19.615Z,14.85
2023-04-19T14:05:06.528Z,15.07
2023-04-19T14:07:46.665Z,15.08
2023-04-19T14:10:33.472Z,15.20
2023-04-19T14:13:13.716Z,15.04
2023-04-19T14:16:00.523Z,14.82
2023-04-19T14:18:47.517Z,15.07
2023-04-19T14:21:28.611Z,15.31
2023-04-19T14:24:15.803Z,15.73
2023-04-19T14:27:11.061Z,16.08
2023-04-19T14:29:51.633Z,16.00
2023-04-19T14:32:38.655Z,15.92
2023-04-19T14:35:18.572Z,15.57
2023-04-19T14:38:05.514Z,15.42
2023-04-19T14:41:00.500Z,14.89
2023-04-19T14:43:40.868Z,14.73
2023-04-19T14:46:27.732Z,14.56
2023-04-19T14:49:14.740Z,14.55
2023-04-19T14:52:01.503Z,14.54
2023-04-19T14:54:48.603Z,14.45
2023-04-19T14:57:28.437Z,14.47
2023-04-19T15:00:09.636Z,14.25
2023-04-19T15:02:56.544Z,14.33
2023-04-19T15:05:37.017Z,14.10
2023-04-19T15:08:30.331Z,14.21
2023-04-19T15:11:10.962Z,14.21
2023-04-19T15:13:57.441Z,14.15
2023-04-19T15:16:37.989Z,14.12
2023-04-19T15:19:25.428Z,13.82
2023-04-19T15:22:06.379Z,13.69
2023-04-19T15:24:53.500Z,13.68
2023-04-19T15:27:40.834Z,13.59
2023-04-19T15:30:20.424Z,13.34
2023-04-19T15:33:01.373Z,13.38
2023-04-19T15:35:48.371Z,13.20
2023-04-19T15:38:37.422Z,13.09
2023-04-19T15:41:31.408Z,13.20
2023-04-19T15:44:18.441Z,13.43
2023-04-19T15:47:05.354Z,13.29
2023-04-19T15:49:47.444Z,13.20
2023-04-19T15:52:34.380Z,13.38
2023-04-19T15:55:14.825Z,13.43
2023-04-19T15:58:01.458Z,13.40
2023-04-19T16:00:41.758Z,13.42
2023-04-19T16:03:28.465Z,13.26
2023-04-19T16:06:08.810Z,13.47
2023-04-19T16:08:55.323Z,13.41
2023-04-19T16:11:42.347Z,13.33
2023-04-19T16:14:29.477Z,13.24
2023-04-19T16:17:09.742Z,13.11
2023-04-19T16:19:56.405Z,12.96
2023-04-19T16:22:43.343Z,13.02
2023-04-19T16:25:23.461Z,12.89
2023-04-19T16:28:10.382Z,12.74
2023-04-19T16:30:52.615Z,12.63
2023-04-19T16:33:39.393Z,12.66
2023-04-19T16:36:19.513Z,12.77
2023-04-19T16:39:07.336Z,12.60
2023-04-19T16:41:47.462Z,12.69
2023-04-19T16:44:34.345Z,12.54
2023-04-19T16:47:14.488Z,12.69
2023-04-19T16:50:01.291Z,12.66
2023-04-19T16:52:41.688Z,12.57
2023-04-19T16:55:28.443Z,12.47
2023-04-19T16:58:08.406Z,12.37
2023-04-19T17:00:55.471Z,12.37
2023-04-19T17:03:35.747Z,12.34
2023-04-19T17:06:22.334Z,12.42
2023-04-19T17:09:05.345Z,12.45
2023-04-19T17:11:52.397Z,12.41
2023-04-19T17:14:39.342Z,12.30
2023-04-19T17:17:20.204Z,12.37
2023-04-19T17:20:07.311Z,12.29
2023-04-19T17:22:47.794Z,12.39
2023-04-19T17:25:34.288Z,12.31
2023-04-19T17:28:14.746Z,12.28
2023-04-19T17:31:01.329Z,12.27
2023-04-19T17:33:41.853Z,12.45
2023-04-19T17:36:28.263Z,12.36
2023-04-19T17:39:22.282Z,12.23
2023-04-19T17:42:02.644Z,12.32
2023-04-19T17:44:50.259Z,12.21
2023-04-19T17:47:30.596Z,12.18
2023-04-19T17:50:25.329Z,11.98
2023-04-19T17:53:12.338Z,11.81
2023-04-19T17:55:52.515Z,11.83
2023-04-19T17:58:39.279Z,11.93
2023-04-19T18:01:19.370Z,11.92
2023-04-19T18:04:06.493Z,11.87
2023-04-19T18:06:53.217Z,11.94
2023-04-19T18:09:33.611Z,11.86
2023-04-19T18:12:20.228Z,11.87
2023-04-19T18:15:07.285Z,11.73
2023-04-19T18:17:47.526Z,11.71
2023-04-19T18:20:34.218Z,11.74
2023-04-19T18:23:14.511Z,11.74
2023-04-19T18:26:02.204Z,11.72
2023-04-19T18:28:42.299Z,11.70
2023-04-19T18:31:29.260Z,11.76
2023-04-19T18:34:11.903Z,11.72
2023-04-19T18:37:05.165Z,11.70
2023-04-19T18:39:52.352Z,11.77
2023-04-19T18:42:32.184Z,11.61
2023-04-19T18:45:19.176Z,11.75
2023-04-19T18:48:06.213Z,11.72
2023-04-19T18:50:46.633Z,11.63
2023-04-19T18:53:33.177Z,11.58
2023-04-19T18:56:20.501Z,11.44
2023-04-19T18:59:00.492Z,11.44
2023-04-19T19:01:47.221Z,11.42
2023-04-19T19:10:18.123Z,11.29
2023-04-19T19:13:08.121Z,11.31
2023-04-19T19:15:48.366Z,11.42
2023-04-19T19:18:35.123Z,11.41
2023-04-19T19:21:15.497Z,11.33
2023-04-19T19:24:03.154Z,11.37
2023-04-19T19:26:50.374Z,11.35
2023-04-19T19:42:17.040Z,10.83
2023-04-19T19:45:05.012Z,11.04
2023-04-19T19:47:46.145Z,11.09
2023-04-19T19:51:10.741Z,11.23
2023-04-19T19:53:42.929Z,11.36
2023-04-19T19:56:29.970Z,11.34
2023-04-19T19:59:10.898Z,11.41
2023-04-19T20:01:58.100Z,11.33
2023-04-19T20:04:46.152Z,11.24
2023-04-19T20:07:58.990Z,11.35
2023-04-19T20:10:33.021Z,11.34
2023-04-19T20:13:13.512Z,11.35
2023-04-19T20:15:59.989Z,11.27
2023-04-19T20:18:49.304Z,11.22
2023-04-19T20:21:29.016Z,11.25
2023-04-19T20:24:15.908Z,11.18
2023-04-19T20:26:57.231Z,11.14
2023-04-19T20:29:44.031Z,11.04
2023-04-19T20:32:24.337Z,11.03
2023-04-19T20:35:16.155Z,11.09
2023-04-19T20:38:02.417Z,11.02
2023-04-19T20:40:55.931Z,11.01
2023-04-19T20:43:43.073Z,10.98
2023-04-19T20:46:22.998Z,10.94
2023-04-19T20:49:10.072Z,10.92
2023-04-19T20:51:51.534Z,10.84
2023-04-19T20:54:37.855Z,10.89
2023-04-19T20:57:18.066Z,10.92
2023-04-19T21:00:04.975Z,10.83
2023-04-19T21:02:45.269Z,10.92
2023-04-19T21:05:31.894Z,10.84
2023-04-19T21:08:12.013Z,10.88
2023-04-19T21:10:58.833Z,10.80
2023-04-19T21:13:45.821Z,10.78
2023-04-19T21:16:26.399Z,10.79
2023-04-19T21:19:12.928Z,10.83
2023-04-19T21:21:59.834Z,10.78
2023-04-19T21:24:46.953Z,10.82
2023-04-19T21:27:33.790Z,10.82
2023-04-19T21:30:23.111Z,10.76
2023-04-19T21:33:03.260Z,10.67
2023-04-19T21:35:49.876Z,10.71
2023-04-19T21:38:30.291Z,10.74
2023-04-19T21:41:17.822Z,10.63
2023-04-19T21:43:58.413Z,10.64
2023-04-19T21:46:44.828Z,10.68
2023-04-19T21:49:31.885Z,10.52
2023-04-19T21:52:12.960Z,10.58
2023-04-19T21:54:59.841Z,10.61
2023-04-19T21:57:40.013Z,10.69
2023-04-19T22:00:26.850Z,10.65
2023-04-19T22:03:07.119Z,10.68
2023-04-19T22:05:53.889Z,10.52
2023-04-19T22:08:35.009Z,10.45
2023-04-19T22:11:21.801Z,10.55
2023-04-19T22:14:11.765Z,10.67
2023-04-19T22:17:01.219Z,10.56
2023-04-19T22:19:40.965Z,10.48
2023-04-19T22:22:27.753Z,10.45
2023-04-19T22:25:14.748Z,10.25
2023-04-19T22:27:55.295Z,10.22
2023-04-19T22:30:41.769Z,10.18
2023-04-19T22:33:22.224Z,10.09
2023-04-19T22:36:08.721Z,9.99
2023-04-19T22:38:52.503Z,9.91
2023-04-19T22:42:05.757Z,9.84
2023-04-19T22:44:55.975Z,9.79
2023-04-19T22:47:47.712Z,9.67
2023-04-19T22:50:28.735Z,9.62
2023-04-19T22:53:19.667Z,9.57
2023-04-19T22:56:10.761Z,9.52
2023-04-19T22:59:16.317Z,9.42
2023-04-19T23:02:17.740Z,9.34
2023-04-19T23:05:25.172Z,9.29
2023-04-19T23:08:20.233Z,9.21
2023-04-19T23:11:06.700Z,9.26
2023-04-19T23:13:47.524Z,9.27
2023-04-19T23:16:39.666Z,9.27
2023-04-19T23:19:20.210Z,9.37
2023-04-19T23:22:06.687Z,9.34
2023-04-19T23:24:53.787Z,9.41
2023-04-19T23:27:33.721Z,9.47
2023-04-19T23:30:14.198Z,9.51
2023-04-19T23:33:00.710Z,9.49
2023-04-19T23:35:41.213Z,9.58
2023-04-19T23:38:27.839Z,9.59
2023-04-19T23:41:23.693Z,9.57
2023-04-19T23:44:04.024Z,9.60
2023-04-19T23:46:50.758Z,9.56
2023-04-19T23:49:37.730Z,9.65
2023-04-19T23:52:17.646Z,9.59
2023-04-19T23:54:58.097Z,9.56
2023-04-19T23:57:47.666Z,9.52
